sensor_id;sensor_type;location;lat;lon;timestamp;P1;durP1;ratioP1;P2;durP2;ratioP2
13605;SDS011;6874;52.084;5.090;2022-09-09T00:01:51;175.37;;;169.90;;
13605;SDS011;6874;52.084;5.090;2022-09-09T00:04:33;174.50;;;169.10;;
13605;SDS011;6874;52.084;5.090;2022-09-09T00:10:05;161.23;;;156.30;;
13605;SDS011;6874;52.084;5.090;2022-09-09T00:12:49;122.87;;;119.03;;
13605;SDS011;6874;52.084;5.090;2022-09-09T00:15:24;135.93;;;131.70;;
13605;SDS011;6874;52.084;5.090;2022-09-09T00:20:32;138.47;;;134.17;;
13605;SDS011;6874;52.084;5.090;2022-09-09T00:23:12;143.00;;;138.60;;
13605;SDS011;6874;52.084;5.090;2022-09-09T00:28:24;125.93;;;122.00;;
13605;SDS011;6874;52.084;5.090;2022-09-09T00:30:52;129.67;;;125.63;;
13605;SDS011;6874;52.084;5.090;2022-09-09T00:33:22;137.80;;;133.53;;
13605;SDS011;6874;52.084;5.090;2022-09-09T00:35:58;124.10;;;120.27;;
13605;SDS011;6874;52.084;5.090;2022-09-09T00:41:01;118.60;;;114.90;;
13605;SDS011;6874;52.084;5.090;2022-09-09T00:49:24;98.67;;;95.57;;
13605;SDS011;6874;52.084;5.090;2022-09-09T00:55:11;88.73;;;85.97;;
13605;SDS011;6874;52.084;5.090;2022-09-09T00:57:43;87.70;;;84.97;;
13605;SDS011;6874;52.084;5.090;2022-09-09T01:00:24;90.83;;;88.00;;
13605;SDS011;6874;52.084;5.090;2022-09-09T01:17:03;69.30;;;67.10;;
13605;SDS011;6874;52.084;5.090;2022-09-09T01:22:35;58.77;;;56.93;;
13605;SDS011;6874;52.084;5.090;2022-09-09T01:25:22;57.63;;;55.80;;
13605;SDS011;6874;52.084;5.090;2022-09-09T01:28:04;58.17;;;56.30;;
13605;SDS011;6874;52.084;5.090;2022-09-09T01:30:33;64.97;;;62.93;;
13605;SDS011;6874;52.084;5.090;2022-09-09T01:33:00;66.03;;;63.93;;
13605;SDS011;6874;52.084;5.090;2022-09-09T01:38:13;58.50;;;56.67;;
13605;SDS011;6874;52.084;5.090;2022-09-09T01:40:39;63.07;;;61.07;;
13605;SDS011;6874;52.084;5.090;2022-09-09T01:43:05;58.87;;;57.00;;
13605;SDS011;6874;52.084;5.090;2022-09-09T01:45:31;63.50;;;61.50;;
13605;SDS011;6874;52.084;5.090;2022-09-09T01:47:57;64.30;;;62.27;;
13605;SDS011;6874;52.084;5.090;2022-09-09T01:50:24;63.10;;;61.10;;
13605;SDS011;6874;52.084;5.090;2022-09-09T01:52:51;65.07;;;63.00;;
13605;SDS011;6874;52.084;5.090;2022-09-09T01:55:23;58.60;;;56.70;;
13605;SDS011;6874;52.084;5.090;2022-09-09T02:00:51;52.23;;;50.57;;
13605;SDS011;6874;52.084;5.090;2022-09-09T02:03:38;46.07;;;44.57;;
13605;SDS011;6874;52.084;5.090;2022-09-09T02:08:47;53.97;;;52.27;;
13605;SDS011;6874;52.084;5.090;2022-09-09T02:11:15;58.63;;;56.77;;
13605;SDS011;6874;52.084;5.090;2022-09-09T02:13:43;54.93;;;53.17;;
13605;SDS011;6874;52.084;5.090;2022-09-09T02:16:15;58.17;;;56.33;;
13605;SDS011;6874;52.084;5.090;2022-09-09T02:21:20;54.47;;;52.70;;
13605;SDS011;6874;52.084;5.090;2022-09-09T02:23:47;55.30;;;53.53;;
13605;SDS011;6874;52.084;5.090;2022-09-09T02:26:17;54.30;;;52.57;;
13605;SDS011;6874;52.084;5.090;2022-09-09T02:28:47;52.00;;;50.30;;
13605;SDS011;6874;52.084;5.090;2022-09-09T02:31:15;51.73;;;50.07;;
13605;SDS011;6874;52.084;5.090;2022-09-09T02:33:45;51.03;;;49.40;;
13605;SDS011;6874;52.084;5.090;2022-09-09T02:36:17;52.67;;;50.97;;
13605;SDS011;6874;52.084;5.090;2022-09-09T02:38:47;53.60;;;51.87;;
13605;SDS011;6874;52.084;5.090;2022-09-09T02:41:15;51.33;;;49.67;;
13605;SDS011;6874;52.084;5.090;2022-09-09T02:43:46;51.73;;;50.07;;
13605;SDS011;6874;52.084;5.090;2022-09-09T02:46:22;53.83;;;52.10;;
13605;SDS011;6874;52.084;5.090;2022-09-09T02:49:00;52.37;;;50.67;;
13605;SDS011;6874;52.084;5.090;2022-09-09T02:54:29;45.20;;;43.73;;
13605;SDS011;6874;52.084;5.090;2022-09-09T02:57:08;47.00;;;45.47;;
13605;SDS011;6874;52.084;5.090;2022-09-09T02:59:37;45.27;;;43.80;;
13605;SDS011;6874;52.084;5.090;2022-09-09T03:02:03;52.37;;;50.67;;
13605;SDS011;6874;52.084;5.090;2022-09-09T03:04:29;51.33;;;49.67;;
13605;SDS011;6874;52.084;5.090;2022-09-09T03:06:56;56.07;;;54.23;;
13605;SDS011;6874;52.084;5.090;2022-09-09T03:09:22;53.40;;;51.67;;
13605;SDS011;6874;52.084;5.090;2022-09-09T03:11:48;55.23;;;53.47;;
13605;SDS011;6874;52.084;5.090;2022-09-09T03:14:14;55.40;;;53.57;;
13605;SDS011;6874;52.084;5.090;2022-09-09T03:16:40;61.10;;;59.10;;
13605;SDS011;6874;52.084;5.090;2022-09-09T03:19:07;55.93;;;54.10;;
13605;SDS011;6874;52.084;5.090;2022-09-09T03:21:34;55.73;;;53.93;;
13605;SDS011;6874;52.084;5.090;2022-09-09T03:24:00;48.70;;;47.10;;
13605;SDS011;6874;52.084;5.090;2022-09-09T03:26:28;54.77;;;53.00;;
13605;SDS011;6874;52.084;5.090;2022-09-09T03:28:54;59.77;;;57.83;;
13605;SDS011;6874;52.084;5.090;2022-09-09T03:31:19;57.80;;;55.93;;
13605;SDS011;6874;52.084;5.090;2022-09-09T03:33:45;56.53;;;54.70;;
13605;SDS011;6874;52.084;5.090;2022-09-09T03:36:11;56.87;;;55.00;;
13605;SDS011;6874;52.084;5.090;2022-09-09T03:38:36;57.00;;;55.17;;
13605;SDS011;6874;52.084;5.090;2022-09-09T03:41:02;58.63;;;56.73;;
13605;SDS011;6874;52.084;5.090;2022-09-09T03:43:30;62.03;;;60.00;;
13605;SDS011;6874;52.084;5.090;2022-09-09T03:45:56;64.07;;;62.00;;
13605;SDS011;6874;52.084;5.090;2022-09-09T03:48:22;65.30;;;63.17;;
13605;SDS011;6874;52.084;5.090;2022-09-09T03:50:48;70.57;;;68.27;;
13605;SDS011;6874;52.084;5.090;2022-09-09T03:53:16;71.77;;;69.43;;
13605;SDS011;6874;52.084;5.090;2022-09-09T03:55:47;79.10;;;76.53;;
13605;SDS011;6874;52.084;5.090;2022-09-09T03:58:16;80.03;;;77.43;;
13605;SDS011;6874;52.084;5.090;2022-09-09T04:00:55;90.00;;;87.10;;
13605;SDS011;6874;52.084;5.090;2022-09-09T04:03:23;77.13;;;74.60;;
13605;SDS011;6874;52.084;5.090;2022-09-09T04:05:52;90.70;;;87.77;;
13605;SDS011;6874;52.084;5.090;2022-09-09T04:08:19;86.17;;;83.37;;
13605;SDS011;6874;52.084;5.090;2022-09-09T04:10:46;84.73;;;82.00;;
13605;SDS011;6874;52.084;5.090;2022-09-09T04:13:12;80.33;;;77.70;;
13605;SDS011;6874;52.084;5.090;2022-09-09T04:15:39;69.70;;;67.43;;
13605;SDS011;6874;52.084;5.090;2022-09-09T04:18:05;68.20;;;66.00;;
13605;SDS011;6874;52.084;5.090;2022-09-09T04:20:31;67.57;;;65.40;;
13605;SDS011;6874;52.084;5.090;2022-09-09T04:22:57;61.93;;;59.90;;
13605;SDS011;6874;52.084;5.090;2022-09-09T04:25:23;59.87;;;57.93;;
13605;SDS011;6874;52.084;5.090;2022-09-09T04:27:52;63.93;;;61.83;;
13605;SDS011;6874;52.084;5.090;2022-09-09T04:30:22;60.43;;;58.47;;
13605;SDS011;6874;52.084;5.090;2022-09-09T04:32:48;61.37;;;59.33;;
13605;SDS011;6874;52.084;5.090;2022-09-09T04:35:14;69.50;;;67.23;;
13605;SDS011;6874;52.084;5.090;2022-09-09T04:37:39;64.80;;;62.67;;
13605;SDS011;6874;52.084;5.090;2022-09-09T04:40:05;69.83;;;67.57;;
13605;SDS011;6874;52.084;5.090;2022-09-09T04:42:35;72.70;;;70.33;;
13605;SDS011;6874;52.084;5.090;2022-09-09T04:45:00;67.77;;;65.53;;
13605;SDS011;6874;52.084;5.090;2022-09-09T04:47:26;72.37;;;70.00;;
13605;SDS011;6874;52.084;5.090;2022-09-09T04:49:52;72.57;;;70.20;;
13605;SDS011;6874;52.084;5.090;2022-09-09T04:52:19;78.63;;;76.10;;
13605;SDS011;6874;52.084;5.090;2022-09-09T04:54:45;76.93;;;74.40;;
13605;SDS011;6874;52.084;5.090;2022-09-09T04:57:11;79.17;;;76.60;;
13605;SDS011;6874;52.084;5.090;2022-09-09T04:59:37;75.63;;;73.13;;
13605;SDS011;6874;52.084;5.090;2022-09-09T05:02:04;75.70;;;73.20;;
13605;SDS011;6874;52.084;5.090;2022-09-09T05:04:30;79.67;;;77.03;;
13605;SDS011;6874;52.084;5.090;2022-09-09T05:06:55;74.37;;;71.93;;
13605;SDS011;6874;52.084;5.090;2022-09-09T05:09:21;81.83;;;79.13;;
13605;SDS011;6874;52.084;5.090;2022-09-09T05:11:46;78.83;;;76.23;;
13605;SDS011;6874;52.084;5.090;2022-09-09T05:14:12;80.53;;;77.83;;
13605;SDS011;6874;52.084;5.090;2022-09-09T05:16:39;79.73;;;77.13;;
13605;SDS011;6874;52.084;5.090;2022-09-09T05:19:05;81.27;;;78.57;;
13605;SDS011;6874;52.084;5.090;2022-09-09T05:21:32;76.37;;;73.80;;
13605;SDS011;6874;52.084;5.090;2022-09-09T05:23:58;76.40;;;73.80;;
13605;SDS011;6874;52.084;5.090;2022-09-09T05:26:27;74.97;;;72.43;;
13605;SDS011;6874;52.084;5.090;2022-09-09T05:28:54;74.80;;;72.27;;
13605;SDS011;6874;52.084;5.090;2022-09-09T05:31:20;70.50;;;68.10;;
13605;SDS011;6874;52.084;5.090;2022-09-09T05:33:46;72.67;;;70.20;;
13605;SDS011;6874;52.084;5.090;2022-09-09T05:36:15;74.17;;;71.63;;
13605;SDS011;6874;52.084;5.090;2022-09-09T05:38:42;77.70;;;75.00;;
13605;SDS011;6874;52.084;5.090;2022-09-09T05:41:09;76.20;;;73.57;;
13605;SDS011;6874;52.084;5.090;2022-09-09T05:43:36;80.57;;;77.77;;
13605;SDS011;6874;52.084;5.090;2022-09-09T05:48:39;76.63;;;73.97;;
13605;SDS011;6874;52.084;5.090;2022-09-09T05:51:07;76.97;;;74.27;;
13605;SDS011;6874;52.084;5.090;2022-09-09T05:53:36;79.60;;;76.80;;
13605;SDS011;6874;52.084;5.090;2022-09-09T05:56:06;79.67;;;76.87;;
13605;SDS011;6874;52.084;5.090;2022-09-09T05:58:36;79.10;;;76.30;;
13605;SDS011;6874;52.084;5.090;2022-09-09T06:03:29;89.23;;;86.10;;
13605;SDS011;6874;52.084;5.090;2022-09-09T06:05:58;93.57;;;90.27;;
13605;SDS011;6874;52.084;5.090;2022-09-09T06:08:24;98.47;;;94.97;;
13605;SDS011;6874;52.084;5.090;2022-09-09T06:10:50;97.47;;;93.97;;
13605;SDS011;6874;52.084;5.090;2022-09-09T06:13:17;102.90;;;99.23;;
13605;SDS011;6874;52.084;5.090;2022-09-09T06:15:52;105.53;;;101.77;;
13605;SDS011;6874;52.084;5.090;2022-09-09T06:18:17;114.37;;;110.23;;
13605;SDS011;6874;52.084;5.090;2022-09-09T06:20:53;131.07;;;126.27;;
13605;SDS011;6874;52.084;5.090;2022-09-09T06:23:25;151.00;;;145.50;;
13605;SDS011;6874;52.084;5.090;2022-09-09T06:25:59;183.67;;;177.07;;
13605;SDS011;6874;52.084;5.090;2022-09-09T06:28:30;201.60;;;194.30;;
13605;SDS011;6874;52.084;5.090;2022-09-09T06:31:03;210.87;;;203.30;;
13605;SDS011;6874;52.084;5.090;2022-09-09T06:33:31;210.90;;;203.40;;
13605;SDS011;6874;52.084;5.090;2022-09-09T06:35:59;210.30;;;202.73;;
13605;SDS011;6874;52.084;5.090;2022-09-09T06:38:25;215.90;;;208.23;;
13605;SDS011;6874;52.084;5.090;2022-09-09T06:40:54;218.53;;;210.73;;
13605;SDS011;6874;52.084;5.090;2022-09-09T06:43:21;218.07;;;210.37;;
13605;SDS011;6874;52.084;5.090;2022-09-09T06:48:27;225.20;;;217.33;;
13605;SDS011;6874;52.084;5.090;2022-09-09T06:51:00;238.30;;;230.00;;
13605;SDS011;6874;52.084;5.090;2022-09-09T06:53:27;235.03;;;226.87;;
13605;SDS011;6874;52.084;5.090;2022-09-09T06:55:52;266.53;;;257.20;;
13605;SDS011;6874;52.084;5.090;2022-09-09T06:58:18;286.90;;;276.80;;
13605;SDS011;6874;52.084;5.090;2022-09-09T07:00:44;306.13;;;295.23;;
13605;SDS011;6874;52.084;5.090;2022-09-09T07:03:09;357.43;;;344.57;;
13605;SDS011;6874;52.084;5.090;2022-09-09T07:05:35;358.60;;;345.73;;
13605;SDS011;6874;52.084;5.090;2022-09-09T07:08:02;368.80;;;355.90;;
13605;SDS011;6874;52.084;5.090;2022-09-09T07:10:27;359.53;;;347.07;;
13605;SDS011;6874;52.084;5.090;2022-09-09T07:12:53;352.83;;;340.63;;
13605;SDS011;6874;52.084;5.090;2022-09-09T07:15:19;315.27;;;304.47;;
13605;SDS011;6874;52.084;5.090;2022-09-09T07:17:46;307.93;;;297.40;;
13605;SDS011;6874;52.084;5.090;2022-09-09T07:20:12;313.40;;;302.60;;
13605;SDS011;6874;52.084;5.090;2022-09-09T07:22:39;306.00;;;295.50;;
13605;SDS011;6874;52.084;5.090;2022-09-09T07:25:05;310.70;;;299.83;;
13605;SDS011;6874;52.084;5.090;2022-09-09T07:27:32;302.83;;;292.17;;
13605;SDS011;6874;52.084;5.090;2022-09-09T07:29:58;288.60;;;278.40;;
13605;SDS011;6874;52.084;5.090;2022-09-09T07:32:24;273.43;;;263.83;;
13605;SDS011;6874;52.084;5.090;2022-09-09T07:34:50;247.17;;;238.53;;
13605;SDS011;6874;52.084;5.090;2022-09-09T07:37:16;231.03;;;222.93;;
13605;SDS011;6874;52.084;5.090;2022-09-09T07:39:42;215.67;;;207.97;;
13605;SDS011;6874;52.084;5.090;2022-09-09T07:42:09;226.33;;;218.23;;
13605;SDS011;6874;52.084;5.090;2022-09-09T07:44:36;216.70;;;208.93;;
13605;SDS011;6874;52.084;5.090;2022-09-09T07:47:04;213.20;;;205.40;;
13605;SDS011;6874;52.084;5.090;2022-09-09T07:49:30;216.13;;;208.33;;
13605;SDS011;6874;52.084;5.090;2022-09-09T07:51:57;218.10;;;210.17;;
13605;SDS011;6874;52.084;5.090;2022-09-09T07:54:23;216.53;;;208.73;;
13605;SDS011;6874;52.084;5.090;2022-09-09T07:56:49;227.13;;;218.90;;
13605;SDS011;6874;52.084;5.090;2022-09-09T07:59:16;221.83;;;213.80;;
13605;SDS011;6874;52.084;5.090;2022-09-09T08:01:43;230.87;;;222.47;;
13605;SDS011;6874;52.084;5.090;2022-09-09T08:04:14;237.83;;;229.13;;
13605;SDS011;6874;52.084;5.090;2022-09-09T08:06:48;244.97;;;236.03;;
13605;SDS011;6874;52.084;5.090;2022-09-09T08:09:18;256.90;;;247.60;;
13605;SDS011;6874;52.084;5.090;2022-09-09T08:11:44;255.73;;;246.50;;
13605;SDS011;6874;52.084;5.090;2022-09-09T08:14:10;261.87;;;252.33;;
13605;SDS011;6874;52.084;5.090;2022-09-09T08:16:37;256.13;;;246.77;;
13605;SDS011;6874;52.084;5.090;2022-09-09T08:19:05;264.30;;;254.70;;
13605;SDS011;6874;52.084;5.090;2022-09-09T08:21:32;270.47;;;260.63;;
13605;SDS011;6874;52.084;5.090;2022-09-09T08:23:59;282.00;;;271.70;;
13605;SDS011;6874;52.084;5.090;2022-09-09T08:26:35;282.20;;;271.87;;
13605;SDS011;6874;52.084;5.090;2022-09-09T08:29:04;272.50;;;262.53;;
13605;SDS011;6874;52.084;5.090;2022-09-09T08:31:35;292.60;;;281.97;;
13605;SDS011;6874;52.084;5.090;2022-09-09T08:34:03;291.87;;;281.27;;
13605;SDS011;6874;52.084;5.090;2022-09-09T08:36:31;284.10;;;273.70;;
13605;SDS011;6874;52.084;5.090;2022-09-09T08:38:59;296.97;;;286.13;;
13605;SDS011;6874;52.084;5.090;2022-09-09T08:47:18;301.87;;;290.67;;
13605;SDS011;6874;52.084;5.090;2022-09-09T08:50:07;307.73;;;296.30;;
13605;SDS011;6874;52.084;5.090;2022-09-09T08:53:27;306.47;;;295.13;;
13605;SDS011;6874;52.084;5.090;2022-09-09T08:55:58;323.07;;;311.00;;
13605;SDS011;6874;52.084;5.090;2022-09-09T09:01:09;323.73;;;311.53;;
13605;SDS011;6874;52.084;5.090;2022-09-09T09:09:40;314.43;;;302.70;;
13605;SDS011;6874;52.084;5.090;2022-09-09T09:12:43;315.03;;;303.50;;
13605;SDS011;6874;52.084;5.090;2022-09-09T09:15:25;300.57;;;289.43;;
13605;SDS011;6874;52.084;5.090;2022-09-09T09:17:55;315.03;;;303.43;;
13605;SDS011;6874;52.084;5.090;2022-09-09T09:20:23;307.53;;;296.30;;
13605;SDS011;6874;52.084;5.090;2022-09-09T09:23:15;303.30;;;292.27;;
13605;SDS011;6874;52.084;5.090;2022-09-09T09:25:45;304.70;;;293.53;;
13605;SDS011;6874;52.084;5.090;2022-09-09T09:28:18;309.77;;;298.37;;
13605;SDS011;6874;52.084;5.090;2022-09-09T09:31:05;301.00;;;289.87;;
13605;SDS011;6874;52.084;5.090;2022-09-09T09:33:38;285.77;;;275.33;;
13605;SDS011;6874;52.084;5.090;2022-09-09T09:36:41;292.10;;;281.70;;
13605;SDS011;6874;52.084;5.090;2022-09-09T09:39:22;286.00;;;275.70;;
13605;SDS011;6874;52.084;5.090;2022-09-09T09:41:55;298.40;;;287.57;;
13605;SDS011;6874;52.084;5.090;2022-09-09T09:49:31;327.97;;;315.80;;
13605;SDS011;6874;52.084;5.090;2022-09-09T09:52:04;326.23;;;314.23;;
13605;SDS011;6874;52.084;5.090;2022-09-09T09:54:37;341.97;;;329.30;;
13605;SDS011;6874;52.084;5.090;2022-09-09T09:57:16;343.03;;;330.17;;
13605;SDS011;6874;52.084;5.090;2022-09-09T09:59:42;341.73;;;329.03;;
13605;SDS011;6874;52.084;5.090;2022-09-09T10:04:45;355.67;;;342.23;;
13605;SDS011;6874;52.084;5.090;2022-09-09T10:07:21;375.37;;;361.10;;
13605;SDS011;6874;52.084;5.090;2022-09-09T10:09:54;370.50;;;356.43;;
13605;SDS011;6874;52.084;5.090;2022-09-09T10:27:05;449.93;;;431.13;;
13605;SDS011;6874;52.084;5.090;2022-09-09T10:29:59;447.17;;;428.43;;
13605;SDS011;6874;52.084;5.090;2022-09-09T10:32:41;453.27;;;434.07;;
13605;SDS011;6874;52.084;5.090;2022-09-09T10:38:17;388.13;;;372.20;;
13605;SDS011;6874;52.084;5.090;2022-09-09T10:48:37;431.67;;;413.17;;
13605;SDS011;6874;52.084;5.090;2022-09-09T10:56:10;450.03;;;430.33;;
13605;SDS011;6874;52.084;5.090;2022-09-09T10:58:39;449.43;;;429.77;;
13605;SDS011;6874;52.084;5.090;2022-09-09T11:01:14;450.90;;;431.17;;
13605;SDS011;6874;52.084;5.090;2022-09-09T11:03:49;464.43;;;444.20;;
13605;SDS011;6874;52.084;5.090;2022-09-09T11:06:20;470.97;;;450.40;;
13605;SDS011;6874;52.084;5.090;2022-09-09T11:08:50;480.70;;;459.50;;
13605;SDS011;6874;52.084;5.090;2022-09-09T11:14:01;479.83;;;458.83;;
13605;SDS011;6874;52.084;5.090;2022-09-09T11:19:14;504.63;;;482.37;;
13605;SDS011;6874;52.084;5.090;2022-09-09T11:21:47;508.97;;;486.40;;
13605;SDS011;6874;52.084;5.090;2022-09-09T11:24:19;520.27;;;497.10;;
13605;SDS011;6874;52.084;5.090;2022-09-09T11:27:07;522.23;;;499.07;;
13605;SDS011;6874;52.084;5.090;2022-09-09T11:40:46;491.83;;;470.63;;
13605;SDS011;6874;52.084;5.090;2022-09-09T11:43:18;529.60;;;506.20;;
13605;SDS011;6874;52.084;5.090;2022-09-09T11:45:57;513.93;;;491.63;;
13605;SDS011;6874;52.084;5.090;2022-09-09T11:48:44;523.50;;;500.47;;
13605;SDS011;6874;52.084;5.090;2022-09-09T11:51:12;497.80;;;476.37;;
13605;SDS011;6874;52.084;5.090;2022-09-09T11:53:51;494.77;;;473.63;;
13605;SDS011;6874;52.084;5.090;2022-09-09T11:56:26;508.70;;;486.67;;
13605;SDS011;6874;52.084;5.090;2022-09-09T11:59:04;505.07;;;483.37;;
13605;SDS011;6874;52.084;5.090;2022-09-09T12:06:48;523.60;;;500.60;;
13605;SDS011;6874;52.084;5.090;2022-09-09T12:17:29;488.27;;;467.03;;
13605;SDS011;6874;52.084;5.090;2022-09-09T12:20:14;478.73;;;458.13;;
13605;SDS011;6874;52.084;5.090;2022-09-09T12:28:22;355.57;;;341.37;;
13605;SDS011;6874;52.084;5.090;2022-09-09T12:30:57;356.20;;;342.07;;
13605;SDS011;6874;52.084;5.090;2022-09-09T12:33:42;330.17;;;317.23;;
13605;SDS011;6874;52.084;5.090;2022-09-09T12:36:11;322.43;;;309.77;;
13605;SDS011;6874;52.084;5.090;2022-09-09T12:38:40;320.87;;;308.37;;
13605;SDS011;6874;52.084;5.090;2022-09-09T12:41:23;314.03;;;301.70;;
13605;SDS011;6874;52.084;5.090;2022-09-09T12:43:51;290.93;;;279.90;;
13605;SDS011;6874;52.084;5.090;2022-09-09T12:46:35;281.60;;;270.80;;
13605;SDS011;6874;52.084;5.090;2022-09-09T12:49:05;289.70;;;278.27;;
13605;SDS011;6874;52.084;5.090;2022-09-09T12:51:49;300.43;;;288.83;;
13605;SDS011;6874;52.084;5.090;2022-09-09T12:54:15;314.23;;;301.93;;
13605;SDS011;6874;52.084;5.090;2022-09-09T12:56:44;326.83;;;314.07;;
13605;SDS011;6874;52.084;5.090;2022-09-09T12:59:45;359.33;;;345.57;;
13605;SDS011;6874;52.084;5.090;2022-09-09T13:02:18;373.33;;;359.30;;
13605;SDS011;6874;52.084;5.090;2022-09-09T13:04:47;386.37;;;371.97;;
13605;SDS011;6874;52.084;5.090;2022-09-09T13:07:17;382.33;;;368.07;;
13605;SDS011;6874;52.084;5.090;2022-09-09T13:09:44;390.33;;;375.57;;
13605;SDS011;6874;52.084;5.090;2022-09-09T13:12:15;416.97;;;400.93;;
13605;SDS011;6874;52.084;5.090;2022-09-09T13:14:44;443.70;;;426.00;;
13605;SDS011;6874;52.084;5.090;2022-09-09T13:17:19;460.50;;;441.90;;
13605;SDS011;6874;52.084;5.090;2022-09-09T13:19:47;465.40;;;446.40;;
13605;SDS011;6874;52.084;5.090;2022-09-09T13:22:57;470.80;;;451.47;;
13605;SDS011;6874;52.084;5.090;2022-09-09T13:25:13;458.63;;;439.97;;
13605;SDS011;6874;52.084;5.090;2022-09-09T13:28:04;463.33;;;444.50;;
13605;SDS011;6874;52.084;5.090;2022-09-09T13:30:36;474.73;;;455.17;;
13605;SDS011;6874;52.084;5.090;2022-09-09T13:33:18;471.50;;;452.30;;
13605;SDS011;6874;52.084;5.090;2022-09-09T13:35:55;463.97;;;445.07;;
13605;SDS011;6874;52.084;5.090;2022-09-09T13:38:21;460.77;;;442.17;;
13605;SDS011;6874;52.084;5.090;2022-09-09T13:43:30;470.97;;;451.10;;
13605;SDS011;6874;52.084;5.090;2022-09-09T13:46:00;463.73;;;445.03;;
13605;SDS011;6874;52.084;5.090;2022-09-09T13:48:28;483.77;;;463.13;;
13605;SDS011;6874;52.084;5.090;2022-09-09T13:51:03;457.23;;;439.03;;
13605;SDS011;6874;52.084;5.090;2022-09-09T13:53:34;430.20;;;413.20;;
13605;SDS011;6874;52.084;5.090;2022-09-09T13:56:07;431.63;;;414.70;;
13605;SDS011;6874;52.084;5.090;2022-09-09T13:58:33;442.03;;;424.73;;
13605;SDS011;6874;52.084;5.090;2022-09-09T14:00:59;433.20;;;416.17;;
13605;SDS011;6874;52.084;5.090;2022-09-09T14:03:24;418.27;;;402.03;;
13605;SDS011;6874;52.084;5.090;2022-09-09T14:05:50;403.50;;;388.20;;
13605;SDS011;6874;52.084;5.090;2022-09-09T14:08:21;401.67;;;386.60;;
13605;SDS011;6874;52.084;5.090;2022-09-09T14:10:51;396.37;;;381.63;;
13605;SDS011;6874;52.084;5.090;2022-09-09T14:13:17;382.00;;;368.00;;
13605;SDS011;6874;52.084;5.090;2022-09-09T14:15:42;396.43;;;382.00;;
13605;SDS011;6874;52.084;5.090;2022-09-09T14:18:09;384.73;;;370.53;;
13605;SDS011;6874;52.084;5.090;2022-09-09T14:20:38;392.07;;;377.80;;
13605;SDS011;6874;52.084;5.090;2022-09-09T14:23:04;384.23;;;370.10;;
13605;SDS011;6874;52.084;5.090;2022-09-09T14:25:30;387.97;;;373.63;;
13605;SDS011;6874;52.084;5.090;2022-09-09T14:27:56;425.80;;;409.83;;
13605;SDS011;6874;52.084;5.090;2022-09-09T14:30:21;409.87;;;394.17;;
13605;SDS011;6874;52.084;5.090;2022-09-09T14:32:47;420.90;;;404.83;;
13605;SDS011;6874;52.084;5.090;2022-09-09T14:35:13;429.27;;;412.53;;
13605;SDS011;6874;52.084;5.090;2022-09-09T14:37:38;420.47;;;404.13;;
13605;SDS011;6874;52.084;5.090;2022-09-09T14:40:04;425.30;;;408.40;;
13605;SDS011;6874;52.084;5.090;2022-09-09T14:42:30;450.00;;;431.77;;
13605;SDS011;6874;52.084;5.090;2022-09-09T14:44:56;428.97;;;411.57;;
13605;SDS011;6874;52.084;5.090;2022-09-09T14:47:21;440.17;;;422.40;;
13605;SDS011;6874;52.084;5.090;2022-09-09T14:49:47;436.10;;;418.37;;
13605;SDS011;6874;52.084;5.090;2022-09-09T14:52:14;434.30;;;416.87;;
13605;SDS011;6874;52.084;5.090;2022-09-09T14:54:41;454.77;;;436.53;;
13605;SDS011;6874;52.084;5.090;2022-09-09T14:57:06;445.63;;;427.90;;
13605;SDS011;6874;52.084;5.090;2022-09-09T14:59:32;443.57;;;425.97;;
13605;SDS011;6874;52.084;5.090;2022-09-09T15:01:59;441.67;;;424.47;;
13605;SDS011;6874;52.084;5.090;2022-09-09T15:04:28;428.17;;;411.53;;
13605;SDS011;6874;52.084;5.090;2022-09-09T15:06:54;422.30;;;405.77;;
13605;SDS011;6874;52.084;5.090;2022-09-09T15:09:20;433.53;;;416.60;;
13605;SDS011;6874;52.084;5.090;2022-09-09T15:11:45;419.43;;;403.30;;
13605;SDS011;6874;52.084;5.090;2022-09-09T15:14:13;428.77;;;412.20;;
13605;SDS011;6874;52.084;5.090;2022-09-09T15:16:39;414.10;;;398.00;;
13605;SDS011;6874;52.084;5.090;2022-09-09T15:19:05;431.00;;;414.43;;
13605;SDS011;6874;52.084;5.090;2022-09-09T15:21:32;418.07;;;402.00;;
13605;SDS011;6874;52.084;5.090;2022-09-09T15:24:00;426.50;;;410.03;;
13605;SDS011;6874;52.084;5.090;2022-09-09T15:26:26;412.97;;;397.07;;
13605;SDS011;6874;52.084;5.090;2022-09-09T15:28:52;430.17;;;413.40;;
13605;SDS011;6874;52.084;5.090;2022-09-09T15:31:22;414.80;;;398.67;;
13605;SDS011;6874;52.084;5.090;2022-09-09T15:33:51;415.67;;;399.53;;
13605;SDS011;6874;52.084;5.090;2022-09-09T15:36:24;425.17;;;408.57;;
13605;SDS011;6874;52.084;5.090;2022-09-09T15:38:51;413.60;;;397.60;;
13605;SDS011;6874;52.084;5.090;2022-09-09T15:41:18;424.90;;;408.33;;
13605;SDS011;6874;52.084;5.090;2022-09-09T15:43:45;416.80;;;400.50;;
13605;SDS011;6874;52.084;5.090;2022-09-09T15:46:23;436.67;;;419.60;;
13605;SDS011;6874;52.084;5.090;2022-09-09T15:48:53;425.53;;;408.77;;
13605;SDS011;6874;52.084;5.090;2022-09-09T15:51:44;419.53;;;403.20;;
13605;SDS011;6874;52.084;5.090;2022-09-09T15:54:12;422.37;;;405.87;;
13605;SDS011;6874;52.084;5.090;2022-09-09T15:56:42;418.17;;;401.60;;
13605;SDS011;6874;52.084;5.090;2022-09-09T15:59:08;422.13;;;405.40;;
13605;SDS011;6874;52.084;5.090;2022-09-09T16:01:34;434.03;;;416.83;;
13605;SDS011;6874;52.084;5.090;2022-09-09T16:04:00;432.23;;;415.27;;
13605;SDS011;6874;52.084;5.090;2022-09-09T16:06:26;422.93;;;406.40;;
13605;SDS011;6874;52.084;5.090;2022-09-09T16:08:53;427.97;;;411.37;;
13605;SDS011;6874;52.084;5.090;2022-09-09T16:11:28;419.90;;;403.60;;
13605;SDS011;6874;52.084;5.090;2022-09-09T16:13:56;417.77;;;401.50;;
13605;SDS011;6874;52.084;5.090;2022-09-09T16:16:23;424.10;;;407.77;;
13605;SDS011;6874;52.084;5.090;2022-09-09T16:18:51;418.77;;;402.77;;
13605;SDS011;6874;52.084;5.090;2022-09-09T16:21:31;420.97;;;404.67;;
13605;SDS011;6874;52.084;5.090;2022-09-09T16:24:00;416.50;;;400.73;;
13605;SDS011;6874;52.084;5.090;2022-09-09T16:26:27;418.20;;;402.43;;
13605;SDS011;6874;52.084;5.090;2022-09-09T16:28:54;416.17;;;400.33;;
13605;SDS011;6874;52.084;5.090;2022-09-09T16:31:21;415.13;;;399.37;;
13605;SDS011;6874;52.084;5.090;2022-09-09T16:33:48;412.30;;;396.60;;
13605;SDS011;6874;52.084;5.090;2022-09-09T16:36:16;423.73;;;407.47;;
13605;SDS011;6874;52.084;5.090;2022-09-09T16:38:43;414.77;;;398.93;;
13605;SDS011;6874;52.084;5.090;2022-09-09T16:41:10;413.70;;;397.90;;
13605;SDS011;6874;52.084;5.090;2022-09-09T16:43:36;427.23;;;411.03;;
13605;SDS011;6874;52.084;5.090;2022-09-09T16:46:13;415.83;;;400.07;;
13605;SDS011;6874;52.084;5.090;2022-09-09T16:48:41;406.83;;;391.53;;
13605;SDS011;6874;52.084;5.090;2022-09-09T16:51:11;414.13;;;398.33;;
13605;SDS011;6874;52.084;5.090;2022-09-09T16:53:44;408.47;;;393.17;;
13605;SDS011;6874;52.084;5.090;2022-09-09T16:56:14;417.13;;;401.23;;
13605;SDS011;6874;52.084;5.090;2022-09-09T16:58:42;413.33;;;397.80;;
13605;SDS011;6874;52.084;5.090;2022-09-09T17:01:09;410.73;;;395.20;;
13605;SDS011;6874;52.084;5.090;2022-09-09T17:03:38;427.67;;;411.33;;